CPX990 Details

Departure: Alice Springs Airport (YBAS)
Arrival: Kingsford Smith International Airport (YSSY)
Route: KALUG A576 PKS H319 TARAL Y59 RIVET
Notes: EMPTY | NON-REVENUE REPOSITIONING LEG


Current Weather Information
YBAS 232330Z AUTO 29002KT 9999 // NCD 18/09 Q1023 RF00.0/000.0
YSSY 232330Z 31009KT CAVOK 19/11 Q1023 NOSIG